Time;durP1;ratioP1;P1;durP2;ratioP2;P2;SDS_P1;SDS_P2;PMS_P1;PMS_P2;Temp;Humidity;BMP_temperature;BMP_pressure;BME280_temperature;BME280_humidity;BME280_pressure;Samples;Min_cycle;Max_cycle;Signal;HPM_P1;HPM_P2
2022/08/23 00:01:14;;;;;;;3.97;3.63;;;;;;;21.62;52.21;100166.28;5016687;28;20852;-69
2022/08/23 00:03:42;;;;;;;6.60;3.90;;;;;;;21.57;52.68;100175.94;5016162;28;20536;-70
2022/08/23 00:06:09;;;;;;;6.37;4.17;;;;;;;21.52;52.75;100173.63;5015937;28;20438;-71
2022/08/23 00:08:37;;;;;;;4.37;3.97;;;;;;;21.42;53.57;100170.06;5016280;28;20450;-70
2022/08/23 00:11:04;;;;;;;6.13;3.60;;;;;;;21.34;53.96;100170.72;5016161;28;20453;-71
2022/08/23 00:13:32;;;;;;;5.63;4.20;;;;;;;21.22;55.09;100167.28;5016482;28;20453;-70
2022/08/23 00:15:59;;;;;;;3.70;3.40;;;;;;;21.19;54.97;100173.06;5017113;28;20448;-71
2022/08/23 00:18:26;;;;;;;5.20;4.70;;;;;;;21.15;55.03;100166.13;5015085;28;20485;-72
2022/08/23 00:20:53;;;;;;;7.93;3.60;;;;;;;21.13;55.37;100159.06;5015829;28;20536;-72
2022/08/23 00:23:20;;;;;;;5.70;4.03;;;;;;;21.10;55.83;100165.69;5015792;28;20479;-71
2022/08/23 00:25:47;;;;;;;4.30;3.90;;;;;;;21.07;55.66;100160.50;5016725;28;20441;-71
2022/08/23 00:28:13;;;;;;;4.70;3.80;;;;;;;21.03;55.88;100159.94;5016241;28;20977;-71
2022/08/23 00:30:40;;;;;;;6.63;3.70;;;;;;;21.06;55.21;100167.00;5014290;28;20993;-69
2022/08/23 00:33:06;;;;;;;3.93;3.60;;;;;;;21.11;55.35;100163.81;5015014;28;20492;-70
2022/08/23 00:35:33;;;;;;;6.47;3.70;;;;;;;21.07;55.80;100154.16;5015252;28;20797;-69
2022/08/23 00:38:01;;;;;;;6.80;3.50;;;;;;;21.10;55.75;100156.59;5014120;28;20978;-69
2022/08/23 00:40:27;;;;;;;6.33;4.77;;;;;;;21.07;56.42;100155.00;5014483;28;20821;-70
2022/08/23 00:48:41;;;;;;;7.13;3.70;;;;;;;20.82;57.31;100149.09;5014645;28;20414;-70
2022/08/23 00:51:13;;;;;;;5.63;3.83;;;;;;;20.78;57.37;100150.41;5014064;28;20445;-68
2022/08/23 00:53:44;;;;;;;5.90;3.60;;;;;;;20.73;57.65;100149.06;5014086;28;20841;-68
2022/08/23 00:56:13;;;;;;;4.63;3.83;;;;;;;20.77;57.88;100153.25;5017373;28;20432;-69
2022/08/23 00:58:40;;;;;;;7.10;4.43;;;;;;;20.78;57.49;100147.66;5014863;28;20481;-71
2022/08/23 01:01:07;;;;;;;4.70;3.63;;;;;;;20.73;57.94;100152.66;5014443;28;20453;-71
2022/08/23 01:03:39;;;;;;;4.87;4.07;;;;;;;20.71;57.85;100164.75;5014393;28;20469;-70
2022/08/23 01:06:10;;;;;;;3.93;3.57;;;;;;;20.71;57.86;100156.56;5014878;28;20447;-70
2022/08/23 01:08:39;;;;;;;7.83;4.30;;;;;;;20.74;57.88;100159.03;5015295;28;20452;-70
2022/08/23 01:11:11;;;;;;;4.20;3.80;;;;;;;20.80;57.94;100164.81;5014169;28;20456;-68
2022/08/23 01:13:43;;;;;;;4.90;3.80;;;;;;;20.75;58.21;100164.34;5014583;28;20489;-70
2022/08/23 01:16:15;;;;;;;4.70;4.20;;;;;;;20.66;58.64;100162.44;5023404;28;20501;-71
2022/08/23 01:18:42;;;;;;;4.70;4.20;;;;;;;20.62;59.32;100158.25;5022658;28;21014;-71
2022/08/23 01:21:15;;;;;;;6.03;4.20;;;;;;;20.53;59.57;100168.16;5017625;28;20440;-71
2022/08/23 01:23:46;;;;;;;4.70;3.90;;;;;;;20.48;60.03;100167.69;5023454;28;20472;-70
2022/08/23 01:26:16;;;;;;;5.07;4.03;;;;;;;20.47;59.96;100168.72;5027717;28;20489;-69
2022/08/23 01:28:42;;;;;;;4.77;4.23;;;;;;;20.48;60.10;100169.56;5029333;28;20434;-68
2022/08/23 01:31:10;;;;;;;4.67;4.20;;;;;;;20.36;60.42;100160.63;5030078;28;20432;-69
2022/08/23 01:33:38;;;;;;;8.80;4.40;;;;;;;20.38;60.20;100164.06;5020713;28;20487;-72
2022/08/23 01:36:07;;;;;;;6.93;3.40;;;;;;;20.34;60.35;100163.47;5014314;28;20448;-70
2022/08/23 01:38:33;;;;;;;5.83;3.60;;;;;;;20.30;60.78;100161.16;5013390;28;20517;-72
2022/08/23 01:41:02;;;;;;;4.67;3.97;;;;;;;20.23;61.25;100155.38;5014715;28;20467;-70
2022/08/23 01:43:28;;;;;;;5.17;4.60;;;;;;;20.18;61.73;100165.88;5013947;28;20572;-70
2022/08/23 01:45:55;;;;;;;8.33;3.93;;;;;;;20.16;61.95;100159.66;5014455;28;20445;-68
2022/08/23 01:48:23;;;;;;;6.67;4.20;;;;;;;20.15;62.14;100166.16;5013759;28;20521;-69
2022/08/23 01:50:49;;;;;;;6.27;4.00;;;;;;;20.17;61.97;100150.44;5013974;28;21006;-69
2022/08/23 01:53:16;;;;;;;4.53;4.10;;;;;;;20.26;61.60;100163.31;5013410;28;20457;-70
2022/08/23 01:55:43;;;;;;;4.43;4.03;;;;;;;20.19;62.04;100157.53;5013808;28;20824;-70
2022/08/23 01:58:12;;;;;;;10.13;4.17;;;;;;;20.15;62.36;100156.06;5013109;28;20645;-70
2022/08/23 02:00:43;;;;;;;8.50;3.93;;;;;;;20.11;62.51;100161.94;5013737;28;20453;-69
2022/08/23 02:03:11;;;;;;;5.73;4.60;;;;;;;20.11;62.67;100160.06;5013987;28;20549;-69
2022/08/23 02:05:38;;;;;;;5.17;3.70;;;;;;;20.10;62.59;100160.19;5013344;28;20544;-69
2022/08/23 02:10:47;;;;;;;4.30;3.90;;;;;;;19.98;63.67;100164.91;5012060;28;20456;-69
2022/08/23 02:13:15;;;;;;;4.80;4.40;;;;;;;20.03;63.20;100170.81;5013846;28;20458;-69
2022/08/23 02:15:43;;;;;;;5.70;3.80;;;;;;;20.03;63.30;100157.16;5013016;28;20783;-69
2022/08/23 02:18:11;;;;;;;4.87;4.20;;;;;;;19.97;63.93;100169.50;5013253;28;20481;-71
2022/08/23 02:20:39;;;;;;;4.43;4.13;;;;;;;19.92;64.45;100173.63;5013604;28;20449;-68
2022/08/23 02:23:06;;;;;;;5.40;4.37;;;;;;;19.91;64.29;100171.91;5014718;28;20477;-70
2022/08/23 02:25:32;;;;;;;4.90;4.33;;;;;;;19.90;64.54;100167.44;5015033;28;20441;-69
2022/08/23 02:27:59;;;;;;;4.23;3.83;;;;;;;19.76;65.18;100171.38;5015827;28;20810;-71
2022/08/23 02:30:27;;;;;;;4.05;3.60;;;;;;;19.78;65.23;100174.84;5014683;28;20965;-70
2022/08/23 02:32:54;;;;;;;4.57;4.17;;;;;;;19.76;65.39;100176.84;5014393;28;20228;-71
2022/08/23 02:35:21;;;;;;;7.13;4.00;;;;;;;19.73;65.63;100179.84;5013750;28;20437;-69
2022/08/23 02:37:47;;;;;;;4.60;4.10;;;;;;;19.73;65.81;100188.91;5013334;28;20496;-69
2022/08/23 02:40:14;;;;;;;5.90;4.03;;;;;;;19.67;66.38;100181.25;5013536;28;20449;-70
2022/08/23 02:42:41;;;;;;;4.60;3.87;;;;;;;19.60;67.06;100182.75;5013595;28;20212;-69
2022/08/23 02:45:08;;;;;;;5.03;4.30;;;;;;;19.61;67.09;100179.03;5014329;28;20472;-69
2022/08/23 02:47:37;;;;;;;4.63;4.00;;;;;;;19.52;67.77;100182.56;5012825;28;20444;-69
2022/08/23 02:50:04;;;;;;;5.85;4.22;;;;;;;19.51;67.73;100186.28;5012796;28;20442;-71
2022/08/23 02:52:30;;;;;;;5.43;4.13;;;;;;;19.45;68.74;100182.22;5013221;28;20640;-69
2022/08/23 02:54:57;;;;;;;7.20;4.53;;;;;;;19.40;68.78;100184.47;5016900;28;20253;-70
2022/08/23 02:57:24;;;;;;;6.25;4.63;;;;;;;19.35;69.05;100189.47;5017202;28;20480;-70
2022/08/23 02:59:51;;;;;;;6.57;4.40;;;;;;;19.35;69.39;100184.84;5016549;28;20213;-69
2022/08/23 03:02:17;;;;;;;8.00;5.10;;;;;;;19.33;69.94;100188.72;5019690;28;20453;-69
2022/08/23 03:04:46;;;;;;;4.00;3.70;;;;;;;19.32;70.53;100182.41;5022448;28;20548;-70
2022/08/23 03:07:12;;;;;;;6.10;4.22;;;;;;;19.38;70.50;100186.47;5017885;28;20221;-71
2022/08/23 03:09:39;;;;;;;6.55;4.93;;;;;;;19.37;70.87;100191.06;5016867;28;20202;-69
2022/08/23 03:12:06;;;;;;;5.70;4.40;;;;;;;19.37;70.56;100191.06;5015587;28;20200;-71
2022/08/23 03:14:34;;;;;;;6.07;4.35;;;;;;;19.37;70.32;100187.47;5016231;28;20257;-69
2022/08/23 03:17:00;;;;;;;4.60;4.20;;;;;;;19.33;70.79;100189.63;5016697;28;20260;-70
2022/08/23 03:19:27;;;;;;;4.78;4.15;;;;;;;19.28;71.39;100191.84;5016366;28;20605;-70
2022/08/23 03:21:54;;;;;;;5.55;4.70;;;;;;;19.28;71.60;100191.84;5017203;28;20206;-68
2022/08/23 03:24:21;;;;;;;5.25;4.40;;;;;;;19.12;72.56;100188.69;5029597;28;20240;-70
2022/08/23 03:26:48;;;;;;;5.75;5.10;;;;;;;19.14;72.18;100194.88;5020284;28;20207;-70
2022/08/23 03:29:14;;;;;;;5.50;4.95;;;;;;;19.08;73.46;100198.97;5015584;28;20668;-72
2022/08/23 03:31:41;;;;;;;7.30;4.70;;;;;;;19.00;74.79;100187.00;5015369;28;20706;-70
2022/08/23 03:34:07;;;;;;;4.90;4.25;;;;;;;19.03;74.41;100192.19;5015798;28;20484;-70
2022/08/23 03:36:34;;;;;;;6.15;4.85;;;;;;;19.05;74.52;100188.34;5015999;28;20206;-69
2022/08/23 03:39:03;;;;;;;6.18;4.93;;;;;;;19.01;74.37;100191.47;5015598;28;20222;-70
2022/08/23 03:41:29;;;;;;;5.80;4.65;;;;;;;18.94;74.64;100191.97;5014999;28;20632;-70
2022/08/23 03:43:56;;;;;;;5.05;4.65;;;;;;;18.93;75.18;100198.44;5015126;28;20260;-70
2022/08/23 03:46:23;;;;;;;6.45;4.57;;;;;;;18.93;75.80;100197.56;5015553;28;20203;-70
2022/08/23 03:48:51;;;;;;;5.03;4.63;;;;;;;18.84;76.32;100190.16;5015416;28;20677;-69
2022/08/23 03:51:18;;;;;;;5.47;4.80;;;;;;;18.89;75.88;100196.09;5015157;28;20217;-70
2022/08/23 03:53:46;;;;;;;5.75;5.10;;;;;;;18.92;74.90;100198.53;5015188;28;20242;-69
2022/08/23 03:56:21;;;;;;;5.80;5.20;;;;;;;18.85;75.75;100202.78;5015055;28;20202;-71
2022/08/23 03:58:48;;;;;;;7.18;4.80;;;;;;;18.86;75.59;100199.94;5014735;28;20598;-71
2022/08/23 04:01:15;;;;;;;7.10;4.97;;;;;;;18.87;75.64;100212.56;5015556;28;20260;-68
2022/08/23 04:03:42;;;;;;;6.20;5.00;;;;;;;18.88;75.51;100206.13;5014689;28;20227;-70
2022/08/23 04:06:09;;;;;;;6.47;4.75;;;;;;;18.85;75.26;100217.28;5013860;28;20198;-70
2022/08/23 04:08:36;;;;;;;5.18;4.60;;;;;;;18.78;76.30;100226.97;5015063;28;20203;-73
2022/08/23 04:11:03;;;;;;;8.82;5.18;;;;;;;18.78;76.54;100220.66;5015525;28;20202;-70
2022/08/23 04:13:30;;;;;;;7.72;5.30;;;;;;;18.82;76.53;100223.00;4995785;28;20305;-69
2022/08/23 04:15:57;;;;;;;6.65;4.75;;;;;;;18.78;76.87;100221.53;4995660;28;20203;-71
2022/08/23 04:18:24;;;;;;;5.30;4.80;;;;;;;18.78;76.97;100221.53;4995509;28;20230;-70
2022/08/23 04:20:51;;;;;;;5.30;4.80;;;;;;;18.75;76.77;100236.25;4995358;28;20209;-70
2022/08/23 04:23:18;;;;;;;6.53;4.72;;;;;;;18.80;76.51;100229.59;4995840;28;20466;-70
2022/08/23 04:25:44;;;;;;;8.32;4.80;;;;;;;18.77;76.73;100236.19;5012385;28;20210;-69
2022/08/23 04:28:11;;;;;;;5.40;4.90;;;;;;;18.69;77.21;100234.03;5015047;28;20202;-70
2022/08/23 04:30:39;;;;;;;6.60;5.30;;;;;;;18.71;77.23;100240.22;5014844;28;20209;-71
2022/08/23 04:33:05;;;;;;;5.22;4.75;;;;;;;18.75;77.26;100236.25;5014899;28;20249;-70
2022/08/23 04:35:32;;;;;;;6.38;5.45;;;;;;;18.80;76.58;100243.22;5014717;28;20834;-70
2022/08/23 04:37:59;;;;;;;6.55;5.20;;;;;;;18.78;77.41;100242.50;5014665;28;20222;-70
2022/08/23 04:43:09;;;;;;;5.72;5.13;;;;;;;18.75;77.26;100249.91;5014452;28;20638;-72
2022/08/23 04:45:39;;;;;;;7.07;5.75;;;;;;;18.78;77.75;100254.25;5014291;28;20202;-71
2022/08/23 04:48:06;;;;;;;8.85;5.20;;;;;;;18.82;77.10;100250.28;5013949;28;20584;-71
2022/08/23 04:50:32;;;;;;;6.00;4.82;;;;;;;18.86;76.93;100257.25;5014370;28;20210;-70
2022/08/23 04:52:59;;;;;;;6.82;4.90;;;;;;;18.90;76.83;100255.09;5014064;28;20584;-72
2022/08/23 04:55:26;;;;;;;7.60;5.63;;;;;;;18.90;76.40;100258.72;5014551;28;20722;-73
2022/08/23 04:57:52;;;;;;;10.93;4.95;;;;;;;19.01;75.52;100248.75;5013636;28;20202;-76
2022/08/23 05:00:19;;;;;;;7.07;5.35;;;;;;;19.03;75.42;100253.09;5014411;28;20198;-72
2022/08/23 05:02:47;;;;;;;6.75;5.75;;;;;;;19.06;75.26;100257.44;5014871;28;20230;-70
2022/08/23 05:05:13;;;;;;;5.40;4.90;;;;;;;19.11;75.14;100266.13;5014447;28;20241;-70
2022/08/23 05:07:40;;;;;;;5.93;5.13;;;;;;;19.15;74.88;100257.56;5014821;28;20206;-71
2022/08/23 05:10:09;;;;;;;5.40;4.90;;;;;;;19.18;74.29;100264.63;5016785;28;20549;-71
2022/08/23 05:12:36;;;;;;;5.72;5.13;;;;;;;19.25;73.82;100267.69;5017958;28;20524;-71
2022/08/23 05:15:03;;;;;;;6.53;4.97;;;;;;;19.33;73.15;100266.06;5022181;28;20214;-71
2022/08/23 05:17:30;;;;;;;7.72;5.47;;;;;;;19.47;72.66;100272.19;5024246;28;20267;-70
2022/08/23 05:19:57;;;;;;;6.78;4.95;;;;;;;19.49;72.25;100272.94;5020523;28;20222;-71
2022/08/23 05:22:24;;;;;;;7.50;5.28;;;;;;;19.52;71.98;100270.81;5018860;28;20202;-71
2022/08/23 05:24:51;;;;;;;11.75;7.15;;;;;;;19.55;71.84;100280.63;5017718;28;20219;-72
2022/08/23 05:27:17;;;;;;;12.77;10.37;;;;;;;19.63;71.18;100285.41;5017251;28;20203;-71
2022/08/23 05:29:44;;;;;;;14.07;9.98;;;;;;;19.71;70.80;100292.00;5017459;28;20442;-70
2022/08/23 05:32:10;;;;;;;8.93;5.53;;;;;;;19.82;70.40;100292.97;5016939;28;20222;-70
2022/08/23 05:34:37;;;;;;;5.93;5.30;;;;;;;19.88;70.03;100295.16;5014176;28;20465;-71
2022/08/23 05:37:05;;;;;;;7.43;5.57;;;;;;;20.03;69.21;100295.69;5013377;28;20444;-70
2022/08/23 05:39:32;;;;;;;9.77;5.05;;;;;;;20.03;68.98;100304.75;5013514;28;20496;-70
2022/08/23 05:41:58;;;;;;;6.10;5.37;;;;;;;20.13;68.43;100302.97;5013285;28;20206;-70
2022/08/23 05:44:25;;;;;;;7.37;4.97;;;;;;;20.17;68.17;100314.50;5013304;28;20457;-72
2022/08/23 05:46:51;;;;;;;5.60;4.80;;;;;;;20.24;67.92;100312.09;5013310;28;20540;-69
2022/08/23 05:49:18;;;;;;;5.20;4.70;;;;;;;20.25;67.39;100311.09;5013018;28;20441;-69
2022/08/23 05:51:45;;;;;;;8.53;5.20;;;;;;;20.27;67.78;100314.56;5013088;28;20548;-70
2022/08/23 05:54:13;;;;;;;7.93;4.30;;;;;;;20.32;67.34;100313.16;5012987;28;20668;-69
2022/08/23 05:56:41;;;;;;;5.87;4.80;;;;;;;20.39;66.92;100325.28;5012877;28;20451;-70
2022/08/23 05:59:11;;;;;;;5.27;4.77;;;;;;;20.40;66.62;100320.69;5023095;28;20484;-74
2022/08/23 06:01:38;;;;;;;6.50;5.10;;;;;;;20.47;66.71;100329.25;5027505;28;20453;-71
2022/08/23 06:04:08;;;;;;;7.00;5.03;;;;;;;20.62;66.45;100327.88;5011488;28;20568;-74
2022/08/23 06:06:35;;;;;;;8.00;5.20;;;;;;;20.72;66.14;100330.69;5010862;28;20947;-72
2022/08/23 06:09:02;;;;;;;5.40;4.90;;;;;;;20.87;65.70;100333.91;5012554;28;20444;-72
2022/08/23 06:11:31;;;;;;;6.10;5.30;;;;;;;20.94;64.21;100326.88;5011310;28;20560;-74
2022/08/23 06:14:00;;;;;;;6.80;5.00;;;;;;;21.07;64.14;100332.13;5012834;28;20469;-74
2022/08/23 06:16:32;;;;;;;10.53;6.03;;;;;;;21.19;63.40;100331.88;5013197;28;20433;-72
2022/08/23 06:19:01;;;;;;;9.37;4.83;;;;;;;21.33;63.04;100330.63;5011355;28;20838;-72
2022/08/23 06:21:28;;;;;;;6.93;5.20;;;;;;;21.40;62.50;100331.81;5010454;28;20469;-71
2022/08/23 06:23:56;;;;;;;4.87;4.40;;;;;;;21.51;62.16;100332.72;5011861;28;20496;-72
2022/08/23 06:26:25;;;;;;;7.27;5.60;;;;;;;21.67;61.47;100337.63;5010917;28;20834;-72
2022/08/23 06:28:55;;;;;;;6.37;4.70;;;;;;;21.75;60.59;100330.41;5010577;28;20836;-72
2022/08/23 06:34:04;;;;;;;6.37;4.90;;;;;;;21.94;59.36;100336.94;5010309;28;20483;-70
2022/08/23 06:36:31;;;;;;;5.80;4.87;;;;;;;22.08;58.72;100328.25;5010770;28;20453;-70
2022/08/23 06:38:57;;;;;;;5.97;4.40;;;;;;;22.33;58.23;100345.13;5019636;28;20572;-72
2022/08/23 06:41:24;;;;;;;5.50;5.00;;;;;;;22.38;58.04;100342.81;5028476;28;20460;-71
2022/08/23 06:43:52;;;;;;;6.87;5.17;;;;;;;22.35;57.25;100341.22;5017425;28;20575;-72
2022/08/23 06:46:22;;;;;;;4.90;4.40;;;;;;;22.40;57.44;100340.78;5012548;28;20549;-72
2022/08/23 06:48:49;;;;;;;5.37;4.23;;;;;;;22.46;56.72;100338.31;5012670;28;20462;-73
2022/08/23 06:51:22;;;;;;;8.00;4.93;;;;;;;22.75;55.93;100339.25;5012911;28;20437;-72
2022/08/23 06:53:49;;;;;;;5.00;4.60;;;;;;;22.95;55.08;100343.66;5010493;28;20484;-71
2022/08/23 06:56:16;;;;;;;5.77;4.83;;;;;;;23.04;54.59;100347.41;5012463;28;20524;-71
2022/08/23 06:58:42;;;;;;;4.70;4.30;;;;;;;23.35;53.89;100341.59;5011345;28;20585;-71
2022/08/23 07:01:12;;;;;;;6.17;4.27;;;;;;;23.38;53.47;100342.19;5010364;28;20465;-72
2022/08/23 07:03:39;;;;;;;9.03;4.30;;;;;;;23.61;52.71;100344.50;5005060;28;20544;-72
2022/08/23 07:06:06;;;;;;;4.87;4.30;;;;;;;23.78;52.16;100348.28;5012379;28;20446;-72
2022/08/23 07:08:33;;;;;;;4.10;3.70;;;;;;;24.02;51.13;100350.44;5010616;28;20838;-73
2022/08/23 07:11:00;;;;;;;4.80;4.33;;;;;;;24.30;50.51;100353.91;5011168;28;20484;-72
2022/08/23 07:13:27;;;;;;;5.97;4.40;;;;;;;24.49;49.60;100345.50;5011858;28;20537;-73
2022/08/23 07:15:58;;;;;;;6.47;4.57;;;;;;;24.69;48.88;100346.16;5023731;28;20440;-72
2022/08/23 07:18:26;;;;;;;5.33;4.17;;;;;;;24.77;48.12;100348.09;5013862;28;21014;-72
2022/08/23 07:20:55;;;;;;;7.03;4.20;;;;;;;24.95;48.13;100354.38;5011212;28;20465;-73
2022/08/23 07:23:22;;;;;;;5.17;4.03;;;;;;;25.35;47.45;100354.78;5011128;28;20488;-73
2022/08/23 07:25:48;;;;;;;13.70;3.90;;;;;;;25.76;46.07;100349.38;5013929;28;20463;-72
2022/08/23 07:28:15;;;;;;;3.83;3.53;;;;;;;26.18;44.99;100362.19;5020938;28;20528;-72
2022/08/23 07:30:42;;;;;;;4.00;3.60;;;;;;;26.59;43.85;100362.22;5017544;28;20454;-72
2022/08/23 07:33:09;;;;;;;4.27;3.70;;;;;;;27.00;42.31;100362.09;5018058;28;20467;-72
2022/08/23 07:35:37;;;;;;;5.17;3.47;;;;;;;27.43;41.36;100354.41;5024281;28;20529;-72
2022/08/23 07:38:04;;;;;;;5.07;3.37;;;;;;;27.98;40.60;100364.44;5012628;28;20465;-71
2022/08/23 07:40:30;;;;;;;4.57;3.47;;;;;;;28.47;39.89;100366.84;5013492;28;20488;-73
2022/08/23 07:42:57;;;;;;;3.90;3.50;;;;;;;29.01;38.42;100363.03;5014222;28;20563;-69
2022/08/23 07:45:24;;;;;;;3.70;3.37;;;;;;;29.35;37.37;100369.03;5015281;28;20441;-70
2022/08/23 07:47:50;;;;;;;3.67;3.30;;;;;;;29.84;37.02;100363.69;5013564;28;20564;-69
2022/08/23 07:50:17;;;;;;;3.97;2.93;;;;;;;30.43;35.76;100365.38;5015026;28;20497;-69
2022/08/23 07:52:45;;;;;;;5.27;3.03;;;;;;;30.85;35.18;100365.53;5010249;28;20463;-68
2022/08/23 07:55:12;;;;;;;4.40;3.40;;;;;;;31.03;34.56;100359.44;5015225;28;20449;-69
2022/08/23 07:57:38;;;;;;;4.03;3.60;;;;;;;31.19;34.81;100361.88;4998353;28;20449;-71
2022/08/23 08:00:06;;;;;;;3.33;3.03;;;;;;;31.56;33.72;100363.38;5024514;28;21026;-69
2022/08/23 08:02:33;;;;;;;4.70;3.50;;;;;;;32.12;33.29;100370.63;5027834;28;20476;-69
2022/08/23 08:05:00;;;;;;;4.73;3.53;;;;;;;32.64;32.42;100367.28;5027862;28;20449;-69
2022/08/23 08:07:27;;;;;;;4.00;3.60;;;;;;;33.47;31.32;100377.81;5023668;28;20484;-71
2022/08/23 08:09:54;;;;;;;4.40;3.13;;;;;;;33.43;30.68;100378.28;5014917;28;20853;-69
2022/08/23 08:12:22;;;;;;;2.87;2.50;;;;;;;33.88;29.97;100382.19;5015517;28;20442;-71
2022/08/23 08:14:49;;;;;;;4.30;2.90;;;;;;;34.62;29.68;100372.25;5015625;28;20548;-69
2022/08/23 08:17:17;;;;;;;3.77;2.90;;;;;;;35.53;28.64;100370.66;5014671;28;20450;-68
2022/08/23 08:19:43;;;;;;;4.60;2.70;;;;;;;35.93;28.01;100378.53;5014602;28;20481;-71
2022/08/23 08:22:11;;;;;;;3.70;2.70;;;;;;;36.14;27.67;100381.94;5014878;28;20915;-71
2022/08/23 08:24:38;;;;;;;4.70;2.50;;;;;;;36.07;27.47;100385.69;5013182;28;20485;-70
2022/08/23 08:27:07;;;;;;;5.10;2.80;;;;;;;36.07;27.57;100384.84;5014585;28;20437;-69
2022/08/23 08:29:33;;;;;;;2.63;2.10;;;;;;;36.11;27.12;100381.34;5014342;28;20461;-71
2022/08/23 08:32:00;;;;;;;2.40;2.20;;;;;;;36.74;26.56;100396.72;5014322;28;20438;-69
2022/08/23 08:34:26;;;;;;;5.87;2.77;;;;;;;37.30;25.78;100396.38;5014881;28;20469;-69
2022/08/23 08:36:55;;;;;;;3.73;2.57;;;;;;;36.42;26.75;100389.72;5014193;28;20503;-71
2022/08/23 08:39:24;;;;;;;5.87;2.57;;;;;;;37.37;26.02;100391.47;5013627;28;20485;-70
2022/08/23 08:42:15;;;;;;;6.13;2.60;;;;;;;37.90;25.49;100401.63;5013968;28;20511;-69
2022/08/23 08:44:46;;;;;;;3.10;2.20;;;;;;;38.55;25.07;100393.88;5013968;28;20475;-69
2022/08/23 08:47:17;;;;;;;3.83;2.70;;;;;;;38.85;24.74;100390.72;5014105;28;20440;-71
2022/08/23 08:49:49;;;;;;;3.17;2.33;;;;;;;39.66;23.66;100398.66;5013654;28;20453;-70
2022/08/23 08:52:22;;;;;;;4.97;2.70;;;;;;;39.15;23.94;100393.16;5013257;28;20794;-71
2022/08/23 08:54:50;;;;;;;2.80;2.57;;;;;;;39.62;23.66;100403.13;5014221;28;20589;-70
2022/08/23 08:57:20;;;;;;;3.53;2.63;;;;;;;40.54;22.46;100403.31;5014041;28;20430;-70
2022/08/23 08:59:54;;;;;;;3.17;1.90;;;;;;;40.80;22.20;100399.63;5013499;28;20488;-68
2022/08/23 09:02:22;;;;;;;3.07;2.30;;;;;;;41.62;21.84;100403.00;5013826;28;20434;-68
2022/08/23 09:04:49;;;;;;;2.47;2.27;;;;;;;42.08;21.60;100411.63;5013618;28;20989;-68
2022/08/23 09:07:25;;;;;;;3.10;2.40;;;;;;;41.91;21.66;100398.84;5013899;28;20544;-71
2022/08/23 09:10:07;;;;;;;8.40;2.80;;;;;;;40.87;22.22;100395.72;5013373;28;20426;-71
2022/08/23 09:12:48;;;;;;;3.60;2.23;;;;;;;41.86;21.32;100399.69;5013173;28;20438;-72
2022/08/23 09:15:25;;;;;;;3.93;2.20;;;;;;;42.35;20.84;100401.22;5013609;28;20434;-70
2022/08/23 09:17:54;;;;;;;3.23;2.33;;;;;;;42.50;20.82;100401.28;5013582;28;20789;-73
2022/08/23 09:20:22;;;;;;;3.60;2.33;;;;;;;40.26;22.35;100396.00;5013674;28;20485;-71
2022/08/23 09:22:52;;;;;;;3.67;2.53;;;;;;;42.00;21.22;100397.22;5013090;28;20484;-69
2022/08/23 09:25:19;;;;;;;2.30;2.10;;;;;;;42.06;21.25;100402.59;5013405;28;21002;-69
2022/08/23 09:27:47;;;;;;;2.90;2.10;;;;;;;41.65;20.84;100391.13;5013813;28;20437;-69
2022/08/23 09:30:16;;;;;;;2.70;2.50;;;;;;;40.48;22.24;100387.47;5013700;28;20437;-69
2022/08/23 09:32:47;;;;;;;2.40;2.20;;;;;;;41.59;21.51;100388.56;5014584;28;20441;-70
2022/08/23 09:35:17;;;;;;;3.20;2.40;;;;;;;41.47;20.70;100374.63;5029185;28;20536;-69
2022/08/23 09:37:56;;;;;;;3.30;2.00;;;;;;;39.68;22.64;100379.53;5024536;28;20421;-69
2022/08/23 09:40:31;;;;;;;2.70;2.47;;;;;;;39.65;22.87;100379.22;5024185;28;20500;-70
2022/08/23 09:43:07;;;;;;;3.03;2.43;;;;;;;42.19;20.76;100383.38;5020455;28;20461;-71
2022/08/23 09:45:37;;;;;;;3.77;2.90;;;;;;;40.78;21.80;100372.78;5019401;28;20532;-69
2022/08/23 09:48:04;;;;;;;3.03;2.17;;;;;;;39.87;22.72;100376.38;5013767;28;20521;-71
2022/08/23 09:50:34;;;;;;;3.10;2.40;;;;;;;41.28;21.49;100367.78;5013234;28;20965;-69
2022/08/23 09:53:05;;;;;;;3.03;2.67;;;;;;;41.97;20.82;100370.34;5013260;28;20469;-69
2022/08/23 09:55:34;;;;;;;3.50;2.37;;;;;;;40.17;22.19;100370.22;5013075;28;20537;-70
2022/08/23 09:58:04;;;;;;;2.73;2.30;;;;;;;40.31;22.25;100370.69;5012798;28;20430;-70
2022/08/23 10:00:34;;;;;;;3.07;2.80;;;;;;;40.63;21.45;100359.38;5012606;28;20488;-69
2022/08/23 10:03:24;;;;;;;3.03;2.73;;;;;;;43.04;19.86;100363.03;5012649;28;20471;-69
2022/08/23 10:05:53;;;;;;;3.27;2.70;;;;;;;42.85;20.40;100369.28;5012800;28;20517;-69
2022/08/23 10:08:27;;;;;;;2.73;2.40;;;;;;;41.22;20.87;100358.41;5012748;28;20445;-69
2022/08/23 10:10:58;;;;;;;5.17;2.30;;;;;;;42.31;20.63;100369.81;5012814;28;20499;-69
2022/08/23 10:13:26;;;;;;;2.37;2.17;;;;;;;43.42;19.72;100366.31;5012853;28;20462;-69
2022/08/23 10:16:05;;;;;;;3.10;2.50;;;;;;;43.02;19.95;100368.13;5012785;28;20442;-69
2022/08/23 10:18:53;;;;;;;4.13;2.80;;;;;;;40.06;22.18;100360.81;5012670;28;20433;-72
2022/08/23 10:21:25;;;;;;;2.97;2.53;;;;;;;38.55;23.42;100344.06;5012900;28;20465;-70
2022/08/23 10:24:14;;;;;;;3.07;2.77;;;;;;;40.08;22.41;100343.63;5062540;22;20509;-69
2022/08/23 10:26:49;;;;;;;2.97;2.67;;;;;;;43.01;20.41;100349.41;5093300;28;20661;-68
2022/08/23 10:29:39;;;;;;;2.40;2.20;;;;;;;40.90;21.90;100350.00;5092706;28;20421;-69
2022/08/23 10:32:22;;;;;;;3.43;2.40;;;;;;;37.99;23.78;100345.84;5093001;28;20444;-70
2022/08/23 10:35:05;;;;;;;2.93;2.67;;;;;;;39.24;22.79;100340.06;5077357;28;20999;-70
2022/08/23 10:37:44;;;;;;;3.50;3.20;;;;;;;39.64;22.72;100338.88;5072499;28;20446;-69
2022/08/23 10:40:16;;;;;;;2.70;2.50;;;;;;;39.03;22.98;100344.56;5072719;28;20467;-70
2022/08/23 10:42:55;;;;;;;3.17;2.90;;;;;;;41.52;21.43;100345.53;5072454;28;20423;-68
2022/08/23 10:45:27;;;;;;;2.97;2.47;;;;;;;43.23;20.04;100338.63;5072735;28;20855;-69
2022/08/23 10:48:08;;;;;;;3.20;2.63;;;;;;;44.94;18.97;100338.06;5072827;28;20777;-69
2022/08/23 10:50:44;;;;;;;3.13;2.30;;;;;;;44.49;19.12;100345.84;5071857;28;20457;-68
2022/08/23 10:53:15;;;;;;;2.73;2.33;;;;;;;44.92;18.65;100340.34;5072398;28;20423;-68
2022/08/23 10:56:01;;;;;;;2.73;2.53;;;;;;;45.43;18.49;100338.91;5071691;28;20443;-69
2022/08/23 10:58:32;;;;;;;2.83;2.53;;;;;;;46.38;17.60;100338.97;5071260;28;20457;-68
2022/08/23 11:01:01;;;;;;;2.50;2.20;;;;;;;47.36;17.16;100338.03;5071787;28;20474;-69
2022/08/23 11:03:31;;;;;;;2.80;2.10;;;;;;;48.19;16.62;100335.88;5072163;28;20463;-68
2022/08/23 11:06:24;;;;;;;2.20;2.00;;;;;;;46.96;16.93;100341.34;5072139;28;20744;-69
2022/08/23 11:08:58;;;;;;;3.53;2.20;;;;;;;42.71;20.09;100331.34;5071678;28;20442;-69
2022/08/23 11:11:38;;;;;;;4.80;2.30;;;;;;;40.64;21.65;100319.59;5072221;28;20443;-69
2022/08/23 11:14:07;;;;;;;3.17;2.47;;;;;;;41.71;20.55;100317.66;5074354;28;20548;-69
2022/08/23 11:16:37;;;;;;;4.50;2.30;;;;;;;44.69;18.97;100322.09;5075764;28;20443;-69
2022/08/23 11:19:04;;;;;;;2.50;2.30;;;;;;;42.57;19.90;100313.25;5076270;28;20422;-69
2022/08/23 11:21:45;;;;;;;3.30;2.50;;;;;;;39.98;21.64;100317.03;5076300;28;20528;-68
2022/08/23 11:24:50;;;;;;;5.10;3.60;;;;;;;40.05;22.14;100310.31;5075930;28;20462;-68
2022/08/23 11:27:32;;;;;;;3.43;2.80;;;;;;;42.92;20.16;100305.84;5076586;28;20449;-69
2022/08/23 11:30:36;;;;;;;3.03;2.50;;;;;;;43.29;19.58;100317.63;5076602;28;20435;-70
2022/08/23 11:33:14;;;;;;;4.20;2.70;;;;;;;42.61;20.14;100303.91;5017803;28;20441;-69
2022/08/23 11:35:44;;;;;;;6.60;3.10;;;;;;;41.47;20.49;100313.31;5014029;28;20702;-69
2022/08/23 11:38:11;;;;;;;3.07;2.77;;;;;;;41.56;20.61;100296.69;5013767;28;20444;-70
2022/08/23 11:40:56;;;;;;;3.80;2.60;;;;;;;42.42;20.21;100305.59;5013978;28;20481;-69
2022/08/23 11:43:27;;;;;;;3.07;2.70;;;;;;;41.90;20.39;100307.50;5013813;28;20461;-68
2022/08/23 11:46:13;;;;;;;3.23;2.97;;;;;;;41.60;20.76;100303.47;5013517;28;20429;-68
2022/08/23 11:48:44;;;;;;;3.90;3.20;;;;;;;39.22;22.33;100290.75;5013090;28;20443;-69